Time;durP1;ratioP1;P1;durP2;ratioP2;P2;SDS_P1;SDS_P2;PMS_P1;PMS_P2;Temp;Humidity;BMP_temperature;BMP_pressure;BME280_temperature;BME280_humidity;BME280_pressure;Samples;Min_cycle;Max_cycle;Signal;HPM_P1;HPM_P2
2023/09/13 00:00:11;;;;;;;5.18;3.38;;;22.70;92.70;;;;;;5011941;28;20026;-77
2023/09/13 00:02:37;;;;;;;6.13;3.70;;;22.70;92.70;;;;;;5011904;28;20379;-77
2023/09/13 00:05:02;;;;;;;5.60;3.70;;;22.70;92.70;;;;;;5011862;28;20060;-77
2023/09/13 00:07:28;;;;;;;5.07;3.50;;;22.70;92.70;;;;;;5012829;28;20582;-77
2023/09/13 00:09:53;;;;;;;5.82;3.47;;;22.80;92.70;;;;;;5012012;28;20018;-77
2023/09/13 00:12:19;;;;;;;5.20;3.38;;;22.80;92.70;;;;;;5011933;28;20084;-77
2023/09/13 00:14:46;;;;;;;5.38;3.35;;;22.80;92.70;;;;;;5012781;28;20042;-77
2023/09/13 00:17:12;;;;;;;5.70;3.80;;;22.80;92.60;;;;;;5011495;28;20030;-77
2023/09/13 00:19:37;;;;;;;4.97;3.53;;;22.80;92.60;;;;;;5011676;28;20018;-77
2023/09/13 00:22:03;;;;;;;5.82;3.55;;;22.80;92.60;;;;;;5011670;28;20026;-77
2023/09/13 00:24:28;;;;;;;6.15;3.60;;;22.80;92.90;;;;;;5012733;28;20371;-77
2023/09/13 00:26:54;;;;;;;5.20;3.50;;;22.80;92.70;;;;;;5011743;28;20018;-77
2023/09/13 00:29:19;;;;;;;5.82;4.13;;;22.70;92.70;;;;;;5012568;28;20034;-77
2023/09/13 00:31:45;;;;;;;5.40;3.70;;;22.70;92.70;;;;;;5011544;28;20049;-77
2023/09/13 00:34:11;;;;;;;5.57;3.80;;;22.70;92.70;;;;;;5010874;28;20033;-77
2023/09/13 00:36:36;;;;;;;8.38;3.30;;;22.70;92.70;;;;;;5011290;28;20113;-76
2023/09/13 00:39:04;;;;;;;5.95;3.85;;;22.70;92.70;;;;;;5011091;28;20026;-77
2023/09/13 00:41:31;;;;;;;5.65;3.60;;;22.70;92.70;;;;;;5012559;28;20617;-77
2023/09/13 00:43:57;;;;;;;5.53;3.58;;;22.70;92.70;;;;;;5012486;28;20034;-77
2023/09/13 00:46:22;;;;;;;5.63;3.67;;;22.70;92.70;;;;;;5011328;28;20045;-76
2023/09/13 00:48:49;;;;;;;5.57;3.70;;;22.70;92.80;;;;;;5011026;28;20030;-77
2023/09/13 00:51:15;;;;;;;5.35;3.60;;;22.70;92.80;;;;;;5012520;28;20026;-77
2023/09/13 00:53:41;;;;;;;5.70;3.58;;;22.70;92.80;;;;;;5011155;28;20547;-77
2023/09/13 00:56:06;;;;;;;5.93;3.58;;;22.70;92.80;;;;;;5011105;28;20041;-76
2023/09/13 00:58:33;;;;;;;5.60;3.75;;;22.70;92.80;;;;;;5010603;28;20056;-76
2023/09/13 01:00:58;;;;;;;5.85;3.60;;;22.70;92.80;;;;;;5012380;28;20018;-77
2023/09/13 01:03:24;;;;;;;5.70;3.50;;;22.70;92.70;;;;;;5011099;28;20049;-77
2023/09/13 01:05:52;;;;;;;5.40;3.40;;;22.70;92.70;;;;;;5011201;28;20032;-78
2023/09/13 01:08:19;;;;;;;5.10;3.47;;;22.80;92.70;;;;;;5010810;28;20030;-78
2023/09/13 01:10:45;;;;;;;5.60;3.53;;;22.80;92.70;;;;;;5011066;28;20393;-77
2023/09/13 01:13:11;;;;;;;6.28;3.72;;;22.80;92.70;;;;;;5010791;28;20034;-77
2023/09/13 01:15:44;;;;;;;5.38;3.45;;;22.80;92.70;;;;;;5010780;28;20061;-77
2023/09/13 01:18:18;;;;;;;5.75;3.60;;;22.80;92.70;;;;;;5010696;28;20091;-77
2023/09/13 01:21:08;;;;;;;4.90;3.20;;;22.80;92.70;;;;;;5012423;28;20018;-77
2023/09/13 01:23:52;;;;;;;4.68;3.15;;;22.70;92.70;;;;;;5010653;28;20398;-77
2023/09/13 01:26:52;;;;;;;5.18;3.50;;;22.70;92.70;;;;;;5010979;28;20034;-78
2023/09/13 01:29:20;;;;;;;5.40;3.80;;;22.70;92.80;;;;;;5011790;28;20061;-78
2023/09/13 01:31:46;;;;;;;5.32;3.50;;;22.70;92.80;;;;;;5010671;28;20026;-77
2023/09/13 01:34:11;;;;;;;5.30;3.35;;;22.70;92.80;;;;;;5010616;28;20482;-77
2023/09/13 01:36:37;;;;;;;5.38;3.53;;;22.60;92.80;;;;;;5010551;28;20029;-77
2023/09/13 01:39:04;;;;;;;5.07;3.45;;;22.70;92.80;;;;;;5010416;28;20060;-77
2023/09/13 01:41:49;;;;;;;5.57;3.58;;;22.70;92.80;;;;;;5010516;28;20133;-77
2023/09/13 01:44:15;;;;;;;5.18;3.45;;;22.70;92.80;;;;;;5010540;28;20026;-77
2023/09/13 01:46:45;;;;;;;5.07;3.50;;;22.70;92.80;;;;;;5014914;28;20398;-77
2023/09/13 01:49:13;;;;;;;5.50;3.58;;;22.70;92.80;;;;;;5015420;28;20100;-77
2023/09/13 01:51:39;;;;;;;5.35;3.60;;;22.80;92.80;;;;;;5015550;28;20509;-77
2023/09/13 01:54:05;;;;;;;5.47;3.55;;;22.60;92.80;;;;;;5015531;28;20113;-77
2023/09/13 01:56:30;;;;;;;5.20;3.50;;;22.70;92.80;;;;;;5014133;28;20569;-77
2023/09/13 01:58:56;;;;;;;5.80;3.60;;;22.70;92.80;;;;;;5013874;28;20042;-77
2023/09/13 02:01:22;;;;;;;5.35;3.45;;;22.70;92.70;;;;;;5014125;28;20505;-76
2023/09/13 02:03:47;;;;;;;5.20;3.30;;;22.70;92.70;;;;;;5015336;28;20050;-77
2023/09/13 02:06:13;;;;;;;5.55;3.65;;;22.70;92.70;;;;;;5015375;28;20117;-77
2023/09/13 02:08:41;;;;;;;5.28;3.42;;;22.70;92.70;;;;;;5013869;28;20037;-76
2023/09/13 02:11:07;;;;;;;5.85;3.70;;;22.70;92.70;;;;;;5015482;28;20025;-76
2023/09/13 02:13:33;;;;;;;5.32;3.30;;;22.70;92.70;;;;;;5013822;28;20558;-77
2023/09/13 02:15:59;;;;;;;5.53;3.40;;;22.70;92.80;;;;;;5013895;28;20030;-77
2023/09/13 02:18:24;;;;;;;5.10;3.20;;;22.70;92.80;;;;;;5014812;28;20497;-77
2023/09/13 02:20:50;;;;;;;4.90;3.30;;;22.70;92.80;;;;;;5013769;28;20164;-77
2023/09/13 02:23:15;;;;;;;4.93;3.25;;;22.70;92.80;;;;;;5014884;28;20021;-77
2023/09/13 02:25:44;;;;;;;5.32;3.40;;;22.70;92.80;;;;;;5014997;28;20030;-77
2023/09/13 02:28:11;;;;;;;5.18;3.35;;;22.70;92.80;;;;;;5013560;28;20022;-76
2023/09/13 02:30:37;;;;;;;4.95;3.38;;;22.60;92.80;;;;;;5013601;28;20040;-76
2023/09/13 02:33:03;;;;;;;5.15;3.40;;;22.60;92.80;;;;;;5014827;28;20034;-77
2023/09/13 02:35:30;;;;;;;7.20;3.50;;;22.60;92.80;;;;;;5013431;28;20030;-77
2023/09/13 02:37:55;;;;;;;5.38;3.70;;;22.60;92.80;;;;;;5014636;28;20021;-77
2023/09/13 02:40:21;;;;;;;5.90;4.10;;;22.70;92.90;;;;;;5014749;28;20065;-76
2023/09/13 02:42:46;;;;;;;7.50;3.85;;;22.60;92.80;;;;;;5011497;28;20037;-77
2023/09/13 02:45:12;;;;;;;5.45;3.40;;;22.60;92.80;;;;;;5014499;28;20072;-77
2023/09/13 02:47:38;;;;;;;5.60;3.65;;;22.70;92.80;;;;;;5006332;28;20057;-77
2023/09/13 02:50:05;;;;;;;5.22;3.40;;;22.70;92.80;;;;;;5013394;28;20054;-77
2023/09/13 02:52:32;;;;;;;5.45;3.72;;;22.70;92.80;;;;;;5014567;28;20022;-77
2023/09/13 02:54:59;;;;;;;5.47;3.58;;;22.70;92.70;;;;;;5013522;28;20489;-77
2023/09/13 02:57:25;;;;;;;5.70;3.45;;;22.70;92.70;;;;;;5012416;28;20041;-77
2023/09/13 02:59:51;;;;;;;5.28;3.28;;;22.70;92.70;;;;;;5013111;28;20022;-77
2023/09/13 03:02:17;;;;;;;5.47;3.60;;;22.70;92.70;;;;;;5013222;28;20108;-77
2023/09/13 03:04:42;;;;;;;5.40;3.45;;;22.70;92.70;;;;;;5013158;28;20025;-77
2023/09/13 03:07:09;;;;;;;5.30;3.67;;;22.70;92.80;;;;;;5014184;28;20034;-77
2023/09/13 03:09:34;;;;;;;5.32;3.33;;;22.70;92.80;;;;;;5013100;28;20025;-77
2023/09/13 03:12:01;;;;;;;5.00;3.10;;;22.70;92.80;;;;;;5014413;28;20489;-77
2023/09/13 03:14:28;;;;;;;5.53;3.60;;;22.70;92.80;;;;;;5014229;28;20496;-77
2023/09/13 03:16:53;;;;;;;5.75;3.67;;;22.70;92.80;;;;;;5014203;28;20029;-77
2023/09/13 03:19:19;;;;;;;4.95;3.20;;;22.60;92.80;;;;;;5012786;28;20022;-77
2023/09/13 03:21:45;;;;;;;5.28;3.25;;;22.60;92.80;;;;;;5012845;28;20018;-77
2023/09/13 03:24:10;;;;;;;5.45;3.40;;;22.60;92.80;;;;;;5014168;28;20217;-77
2023/09/13 03:26:36;;;;;;;5.50;3.58;;;22.70;92.90;;;;;;5012745;28;20442;-77
2023/09/13 03:29:02;;;;;;;5.68;3.50;;;22.60;92.80;;;;;;5012687;28;20100;-77
2023/09/13 03:31:28;;;;;;;5.18;3.33;;;22.60;92.80;;;;;;5013903;28;20022;-78
2023/09/13 03:33:55;;;;;;;5.00;3.22;;;22.60;92.80;;;;;;5013979;28;20049;-77
2023/09/13 03:36:21;;;;;;;5.20;3.53;;;22.60;92.80;;;;;;5013838;28;20022;-77
2023/09/13 03:38:47;;;;;;;4.80;3.33;;;22.60;92.80;;;;;;5012394;28;20022;-77
2023/09/13 03:41:21;;;;;;;5.28;3.10;;;22.70;92.80;;;;;;5014163;28;20076;-78
2023/09/13 03:43:47;;;;;;;5.50;3.53;;;22.70;92.80;;;;;;5012467;28;20021;-77
2023/09/13 03:46:13;;;;;;;5.30;3.42;;;22.70;92.80;;;;;;5013740;28;20030;-77
2023/09/13 03:48:39;;;;;;;5.50;3.45;;;22.70;92.80;;;;;;5011956;28;20402;-77
2023/09/13 03:51:05;;;;;;;5.03;3.15;;;22.70;92.70;;;;;;5012296;28;20439;-77
2023/09/13 03:53:31;;;;;;;4.88;3.10;;;22.70;92.70;;;;;;5012235;28;20026;-77
2023/09/13 03:55:57;;;;;;;5.30;3.17;;;22.70;92.80;;;;;;5012300;28;20500;-77
2023/09/13 03:58:23;;;;;;;4.85;3.20;;;22.70;92.80;;;;;;5011735;28;20172;-77
2023/09/13 04:00:48;;;;;;;5.00;3.28;;;22.70;92.80;;;;;;5013419;28;20094;-77
2023/09/13 04:03:15;;;;;;;4.97;3.40;;;22.60;92.80;;;;;;5013286;28;20018;-77
2023/09/13 04:05:41;;;;;;;4.70;3.05;;;22.70;92.80;;;;;;5013334;28;20037;-77
2023/09/13 04:08:06;;;;;;;5.63;3.50;;;22.60;92.80;;;;;;5012768;28;20050;-77
2023/09/13 04:10:32;;;;;;;5.22;3.20;;;22.60;92.80;;;;;;5011387;28;20049;-77
2023/09/13 04:13:05;;;;;;;5.20;3.50;;;22.60;92.80;;;;;;5013549;28;20470;-76
2023/09/13 04:15:30;;;;;;;5.18;3.10;;;22.60;92.80;;;;;;5014847;28;20033;-78
2023/09/13 04:17:56;;;;;;;4.85;3.33;;;22.60;92.90;;;;;;5012969;28;20026;-77
2023/09/13 04:20:22;;;;;;;5.82;3.33;;;22.60;92.90;;;;;;5012883;28;20018;-78
2023/09/13 04:22:48;;;;;;;5.10;3.40;;;22.60;92.90;;;;;;5012736;28;20022;-77
2023/09/13 04:25:14;;;;;;;4.82;3.25;;;22.60;92.90;;;;;;5012898;28;20022;-77
2023/09/13 04:27:43;;;;;;;4.90;3.20;;;22.60;92.90;;;;;;5012453;28;20521;-77
2023/09/13 04:30:09;;;;;;;5.10;3.40;;;22.60;92.90;;;;;;5012802;28;20508;-77
2023/09/13 04:32:35;;;;;;;4.88;3.10;;;22.60;92.90;;;;;;5012482;28;20030;-77
2023/09/13 04:35:00;;;;;;;4.90;3.20;;;22.60;92.80;;;;;;5011644;28;20022;-78
2023/09/13 04:37:27;;;;;;;5.50;3.28;;;22.70;92.80;;;;;;5011200;28;20280;-77
2023/09/13 04:39:53;;;;;;;4.97;3.17;;;22.60;92.80;;;;;;5012949;28;20022;-78
2023/09/13 04:42:18;;;;;;;5.50;3.20;;;22.70;92.80;;;;;;5011143;28;20029;-77
2023/09/13 04:44:44;;;;;;;5.45;3.65;;;22.60;92.70;;;;;;5011880;28;20032;-77
2023/09/13 04:47:09;;;;;;;4.95;3.22;;;22.70;92.80;;;;;;5002698;28;20021;-77
2023/09/13 04:49:36;;;;;;;5.32;3.50;;;22.70;92.80;;;;;;5011300;28;20021;-77
2023/09/13 04:52:03;;;;;;;4.90;3.05;;;22.60;92.80;;;;;;5012531;28;20420;-77
2023/09/13 04:54:28;;;;;;;4.97;3.17;;;22.60;92.80;;;;;;5010946;28;20508;-77
2023/09/13 04:56:54;;;;;;;4.93;3.10;;;22.60;92.80;;;;;;5010312;28;20025;-77
2023/09/13 04:59:24;;;;;;;6.15;3.60;;;22.60;92.90;;;;;;5001176;28;20022;-77
2023/09/13 05:01:50;;;;;;;5.15;3.33;;;22.60;92.90;;;;;;5002264;28;20015;-77
2023/09/13 05:04:15;;;;;;;4.38;2.80;;;22.60;92.80;;;;;;5012210;28;20387;-78
2023/09/13 05:06:41;;;;;;;5.05;3.25;;;22.60;92.90;;;;;;5012059;28;20037;-77
2023/09/13 05:09:06;;;;;;;4.30;2.97;;;22.60;92.90;;;;;;5012155;28;20109;-77
2023/09/13 05:11:31;;;;;;;5.40;3.08;;;22.50;92.80;;;;;;5012079;28;20426;-77
2023/09/13 05:14:14;;;;;;;4.70;3.00;;;22.60;92.90;;;;;;5011958;28;20042;-77
2023/09/13 05:16:40;;;;;;;5.30;3.30;;;22.60;92.90;;;;;;5011866;28;20022;-77
2023/09/13 05:19:06;;;;;;;4.65;2.97;;;22.60;92.90;;;;;;5011997;28;20033;-77
2023/09/13 05:21:31;;;;;;;5.15;3.38;;;22.60;92.90;;;;;;5016148;28;20114;-77
2023/09/13 05:23:57;;;;;;;4.63;3.15;;;22.70;92.90;;;;;;5018761;28;20022;-77
2023/09/13 05:26:22;;;;;;;4.53;2.92;;;22.70;92.90;;;;;;5017586;28;20026;-77
2023/09/13 05:28:48;;;;;;;4.45;2.95;;;22.70;92.90;;;;;;5018313;28;20041;-77
2023/09/13 05:31:14;;;;;;;5.50;3.17;;;22.60;92.80;;;;;;5018710;28;20030;-77
2023/09/13 05:33:40;;;;;;;4.97;3.20;;;22.60;92.80;;;;;;5018564;28;20483;-77
2023/09/13 05:36:10;;;;;;;4.57;3.00;;;22.70;92.80;;;;;;5018611;28;20037;-77
2023/09/13 05:38:35;;;;;;;4.47;2.90;;;22.70;92.80;;;;;;5018243;28;20048;-77
2023/09/13 05:41:11;;;;;;;4.60;2.88;;;22.60;92.80;;;;;;5017368;28;20526;-76
2023/09/13 05:43:38;;;;;;;5.10;3.35;;;22.60;92.80;;;;;;5016987;28;20041;-77
2023/09/13 05:46:04;;;;;;;5.07;3.25;;;22.60;92.80;;;;;;5018502;28;20427;-77
2023/09/13 05:48:30;;;;;;;5.38;3.20;;;22.70;92.90;;;;;;5018113;28;20033;-77
2023/09/13 05:50:56;;;;;;;4.38;2.92;;;22.60;92.90;;;;;;5018418;28;20025;-76
2023/09/13 05:53:21;;;;;;;4.55;3.17;;;22.60;92.90;;;;;;5018293;28;20018;-77
2023/09/13 05:55:48;;;;;;;4.47;2.88;;;22.60;92.90;;;;;;5018263;28;20065;-77
2023/09/13 05:58:14;;;;;;;4.85;3.10;;;22.60;92.90;;;;;;5018003;28;20022;-77
2023/09/13 06:00:43;;;;;;;4.82;3.03;;;22.60;92.90;;;;;;5017148;28;20482;-77
2023/09/13 06:03:09;;;;;;;4.85;3.00;;;22.60;92.90;;;;;;5018295;28;20548;-77
2023/09/13 06:05:35;;;;;;;5.30;3.40;;;22.50;92.90;;;;;;5018222;28;20029;-77
2023/09/13 06:08:00;;;;;;;4.82;3.00;;;22.50;92.90;;;;;;5018225;28;20098;-77
2023/09/13 06:10:26;;;;;;;5.63;3.13;;;22.60;92.90;;;;;;5016967;28;20390;-78
2023/09/13 06:12:51;;;;;;;4.53;3.03;;;22.60;92.90;;;;;;5018023;28;20026;-77
2023/09/13 06:15:18;;;;;;;4.68;2.97;;;22.60;92.90;;;;;;5018231;28;20038;-77
2023/09/13 06:17:43;;;;;;;4.57;3.05;;;22.60;92.90;;;;;;5017965;28;20028;-77
2023/09/13 06:20:09;;;;;;;4.95;2.97;;;22.60;92.80;;;;;;5018485;28;20104;-77
2023/09/13 06:22:34;;;;;;;5.35;3.75;;;22.60;92.60;;;;;;5017006;28;20024;-77
2023/09/13 06:25:00;;;;;;;5.45;3.72;;;22.60;91.90;;;;;;5017049;28;20126;-77
2023/09/13 06:27:25;;;;;;;7.20;4.90;;;22.50;92.40;;;;;;5017973;28;20032;-77
2023/09/13 06:29:51;;;;;;;5.72;3.35;;;22.50;92.50;;;;;;5018030;28;20026;-77
2023/09/13 06:32:17;;;;;;;7.07;4.35;;;22.50;92.50;;;;;;5015743;28;20117;-77
2023/09/13 06:34:42;;;;;;;7.28;4.63;;;22.50;92.50;;;;;;5015066;28;20030;-77
2023/09/13 06:37:09;;;;;;;7.30;5.10;;;22.60;92.40;;;;;;5013666;28;20048;-77
2023/09/13 06:39:35;;;;;;;10.45;6.57;;;22.50;92.30;;;;;;5015024;28;20018;-77
2023/09/13 06:42:04;;;;;;;7.80;5.63;;;22.50;92.20;;;;;;5015145;28;20022;-77
2023/09/13 06:44:29;;;;;;;8.73;5.65;;;22.60;92.20;;;;;;5014826;28;20462;-77
2023/09/13 06:46:55;;;;;;;8.25;5.80;;;22.60;92.10;;;;;;5014935;28;20049;-77
2023/09/13 06:49:20;;;;;;;7.70;5.88;;;22.60;92.20;;;;;;5013426;28;20025;-77
2023/09/13 06:51:46;;;;;;;7.65;5.40;;;22.60;92.20;;;;;;5014703;28;20073;-77
2023/09/13 06:54:11;;;;;;;9.27;6.10;;;22.50;92.20;;;;;;5014872;28;20474;-77
2023/09/13 06:56:37;;;;;;;7.38;5.60;;;22.60;92.20;;;;;;5014538;28;20033;-77
2023/09/13 06:59:03;;;;;;;8.73;5.40;;;22.50;92.20;;;;;;5014209;28;20501;-77
2023/09/13 07:01:28;;;;;;;9.13;5.30;;;22.60;92.30;;;;;;5014608;28;20101;-77
2023/09/13 07:03:57;;;;;;;8.55;5.60;;;22.60;92.30;;;;;;5014603;28;20546;-77
2023/09/13 07:06:23;;;;;;;7.22;5.13;;;22.60;92.30;;;;;;5014632;28;20029;-77
2023/09/13 07:08:49;;;;;;;7.75;5.40;;;22.60;92.30;;;;;;5014218;28;20026;-77
2023/09/13 07:11:15;;;;;;;7.38;4.90;;;22.60;92.30;;;;;;5014720;28;20017;-77
2023/09/13 07:13:41;;;;;;;7.38;4.93;;;22.60;92.30;;;;;;5012933;28;20044;-77
2023/09/13 07:16:06;;;;;;;8.70;5.38;;;22.60;92.20;;;;;;5013160;28;20038;-77
2023/09/13 07:18:32;;;;;;;7.75;5.10;;;22.60;92.20;;;;;;5014033;28;20022;-77
2023/09/13 07:20:57;;;;;;;8.65;5.45;;;22.60;92.30;;;;;;5013354;28;20548;-77
2023/09/13 07:23:23;;;;;;;7.65;5.10;;;22.60;92.30;;;;;;5014042;28;20030;-77
2023/09/13 07:25:48;;;;;;;7.13;4.97;;;22.60;92.30;;;;;;5013023;28;20080;-78
2023/09/13 07:28:15;;;;;;;7.65;5.10;;;22.60;92.30;;;;;;5012312;28;20020;-78
2023/09/13 07:30:40;;;;;;;7.03;4.93;;;22.60;92.30;;;;;;5012474;28;20026;-77
2023/09/13 07:33:06;;;;;;;6.80;4.90;;;22.60;92.30;;;;;;5012649;28;20026;-78
2023/09/13 07:35:31;;;;;;;6.68;4.78;;;22.70;92.40;;;;;;5013605;28;20022;-77
2023/09/13 07:37:57;;;;;;;6.50;4.50;;;22.60;92.40;;;;;;5013456;28;20521;-77
2023/09/13 07:40:22;;;;;;;7.28;4.70;;;22.60;92.40;;;;;;5012379;28;20022;-77
2023/09/13 07:42:48;;;;;;;7.25;4.60;;;22.60;92.40;;;;;;5011979;28;20068;-77
2023/09/13 07:45:13;;;;;;;6.55;4.90;;;22.60;92.40;;;;;;5014199;28;20153;-77
2023/09/13 07:47:39;;;;;;;6.20;4.32;;;22.60;92.40;;;;;;5012010;28;20025;-78
2023/09/13 07:50:05;;;;;;;6.55;4.25;;;22.60;92.40;;;;;;5013620;28;20517;-78
2023/09/13 07:52:30;;;;;;;6.32;4.63;;;22.60;92.40;;;;;;5013435;28;20021;-77
2023/09/13 07:54:56;;;;;;;6.90;4.68;;;22.60;92.40;;;;;;5013446;28;20026;-77
2023/09/13 07:57:21;;;;;;;6.60;4.40;;;22.60;92.40;;;;;;5012933;28;20033;-77
2023/09/13 07:59:47;;;;;;;8.05;4.38;;;22.60;92.40;;;;;;5011656;28;20394;-77
2023/09/13 08:02:13;;;;;;;6.57;4.43;;;22.70;92.30;;;;;;5011996;28;20113;-77
2023/09/13 08:04:38;;;;;;;7.18;3.85;;;22.70;92.30;;;;;;5013142;28;20478;-77
2023/09/13 08:07:04;;;;;;;7.15;4.65;;;22.70;92.20;;;;;;5011792;28;20410;-77
2023/09/13 08:09:30;;;;;;;6.40;4.20;;;22.80;92.10;;;;;;5013064;28;20103;-77
2023/09/13 08:11:55;;;;;;;6.10;4.10;;;22.80;92.10;;;;;;5011669;28;20037;-77
2023/09/13 08:14:21;;;;;;;5.93;4.05;;;22.90;92.10;;;;;;5013093;28;20038;-77
2023/09/13 08:16:46;;;;;;;6.25;4.10;;;22.80;92.10;;;;;;5012817;28;20018;-77
2023/09/13 08:19:12;;;;;;;5.90;4.03;;;22.80;92.00;;;;;;5012862;28;20021;-77
2023/09/13 08:21:38;;;;;;;5.80;4.25;;;22.90;92.00;;;;;;5011903;28;20030;-77
2023/09/13 08:24:04;;;;;;;6.00;4.00;;;22.90;92.00;;;;;;5012873;28;20382;-77
2023/09/13 08:26:30;;;;;;;6.35;4.20;;;22.90;92.00;;;;;;5011688;28;20022;-77
2023/09/13 08:28:57;;;;;;;5.70;3.92;;;22.90;92.00;;;;;;5012484;28;20112;-77
2023/09/13 08:31:25;;;;;;;6.32;4.18;;;22.90;92.10;;;;;;5013009;28;20117;-77
2023/09/13 08:33:54;;;;;;;5.53;3.83;;;22.80;92.10;;;;;;5012667;28;20026;-77
2023/09/13 08:36:20;;;;;;;6.13;4.00;;;22.80;92.20;;;;;;5012763;28;20386;-77
2023/09/13 08:38:45;;;;;;;6.10;4.10;;;22.80;92.20;;;;;;5011180;28;20029;-77
2023/09/13 08:41:14;;;;;;;5.40;3.67;;;22.80;92.20;;;;;;5012678;28;20249;-77
2023/09/13 08:43:40;;;;;;;5.72;3.67;;;22.80;92.20;;;;;;5012569;28;20018;-77
2023/09/13 08:46:06;;;;;;;5.65;3.80;;;22.80;92.30;;;;;;5012896;28;20474;-77
2023/09/13 08:48:33;;;;;;;5.80;3.78;;;22.80;92.30;;;;;;5011054;28;20030;-77
2023/09/13 08:51:02;;;;;;;5.75;3.47;;;22.80;92.50;;;;;;5012533;28;20108;-77
2023/09/13 08:53:29;;;;;;;6.00;3.75;;;22.90;92.20;;;;;;5012501;28;20100;-77
2023/09/13 08:55:55;;;;;;;6.45;3.80;;;22.80;92.10;;;;;;5010635;28;20026;-77
2023/09/13 08:58:21;;;;;;;5.60;3.40;;;22.80;92.00;;;;;;5010535;28;20485;-77
2023/09/13 09:00:49;;;;;;;6.45;3.75;;;22.90;92.00;;;;;;5012422;28;20022;-77
2023/09/13 09:03:17;;;;;;;6.65;3.80;;;22.90;92.00;;;;;;5012316;28;20018;-77
2023/09/13 09:05:45;;;;;;;5.45;3.60;;;22.90;92.00;;;;;;5012216;28;20049;-77
2023/09/13 09:08:11;;;;;;;6.10;3.67;;;22.90;92.00;;;;;;5011060;28;20088;-77
2023/09/13 09:10:37;;;;;;;6.10;3.63;;;22.90;92.00;;;;;;5012214;28;20494;-77
2023/09/13 09:13:05;;;;;;;5.05;3.20;;;22.90;92.10;;;;;;5012151;28;20506;-77
2023/09/13 09:15:35;;;;;;;4.88;3.25;;;22.80;92.10;;;;;;5011082;28;20022;-77
2023/09/13 09:18:03;;;;;;;5.18;3.45;;;22.80;92.20;;;;;;5010763;28;20486;-77
2023/09/13 09:20:30;;;;;;;6.00;3.40;;;22.80;92.20;;;;;;5010909;28;20034;-77
2023/09/13 09:22:58;;;;;;;5.15;3.40;;;22.80;92.30;;;;;;5012293;28;20382;-77
2023/09/13 09:25:25;;;;;;;5.15;3.28;;;22.80;92.50;;;;;;5011089;28;20018;-77
2023/09/13 09:27:51;;;;;;;5.88;3.63;;;22.80;92.30;;;;;;5010618;28;20562;-77
2023/09/13 09:30:28;;;;;;;5.60;3.83;;;22.80;92.30;;;;;;5012531;28;20160;-77
2023/09/13 09:33:00;;;;;;;5.22;3.33;;;22.80;92.30;;;;;;5012271;28;20731;-77
2023/09/13 09:35:25;;;;;;;5.30;3.55;;;22.80;92.30;;;;;;5012266;28;20034;-77
2023/09/13 09:37:51;;;;;;;4.82;3.38;;;22.80;92.30;;;;;;5011816;28;20067;-77
2023/09/13 09:40:16;;;;;;;5.53;3.28;;;22.70;92.40;;;;;;5011242;28;20498;-77
2023/09/13 09:42:42;;;;;;;5.03;3.38;;;22.80;92.40;;;;;;5010970;28;20022;-77
2023/09/13 09:45:08;;;;;;;5.40;3.55;;;22.80;92.30;;;;;;5012274;28;20367;-77
2023/09/13 09:47:38;;;;;;;4.82;3.10;;;22.70;92.50;;;;;;5010665;28;20068;-77
2023/09/13 09:50:04;;;;;;;5.32;3.33;;;22.80;92.20;;;;;;5011093;28;20509;-77
2023/09/13 09:52:31;;;;;;;5.63;3.45;;;22.80;92.20;;;;;;5011009;28;20398;-77
2023/09/13 09:54:56;;;;;;;4.97;3.22;;;22.80;92.20;;;;;;5011126;28;20029;-77
2023/09/13 09:57:23;;;;;;;5.00;3.17;;;22.80;92.20;;;;;;5012211;28;20506;-77
2023/09/13 09:59:49;;;;;;;5.00;3.40;;;22.80;92.20;;;;;;5011786;28;20030;-77
2023/09/13 10:02:15;;;;;;;4.68;2.97;;;22.80;92.30;;;;;;5012063;28;20105;-77
2023/09/13 10:04:45;;;;;;;5.28;3.20;;;22.70;92.30;;;;;;5010811;28;20487;-77
2023/09/13 10:07:11;;;;;;;5.55;3.63;;;22.70;92.40;;;;;;5012761;28;20034;-77
2023/09/13 10:09:40;;;;;;;4.80;3.10;;;22.80;92.40;;;;;;5015623;28;20026;-77
2023/09/13 10:12:07;;;;;;;4.70;2.97;;;22.70;92.40;;;;;;5015758;28;20482;-77
2023/09/13 10:14:33;;;;;;;4.88;3.15;;;22.60;92.40;;;;;;5015606;28;20061;-77
2023/09/13 10:17:00;;;;;;;4.80;2.90;;;22.70;92.50;;;;;;5015456;28;20494;-77
2023/09/13 10:19:29;;;;;;;4.70;2.83;;;22.70;92.50;;;;;;5014235;28;20033;-77
2023/09/13 10:21:55;;;;;;;5.10;3.00;;;22.70;92.50;;;;;;5014231;28;20026;-77
2023/09/13 10:24:24;;;;;;;5.15;3.03;;;22.70;92.50;;;;;;5014174;28;20022;-77
2023/09/13 10:26:52;;;;;;;4.53;2.80;;;22.70;92.50;;;;;;5014246;28;20119;-77
2023/09/13 10:29:29;;;;;;;5.03;3.03;;;22.80;92.50;;;;;;5014239;28;20053;-77
2023/09/13 10:32:00;;;;;;;4.55;3.03;;;22.70;92.40;;;;;;5015346;28;20053;-77
2023/09/13 10:34:29;;;;;;;4.50;2.70;;;22.70;92.40;;;;;;5015234;28;20026;-77
2023/09/13 10:37:18;;;;;;;6.00;3.17;;;22.80;92.40;;;;;;5015307;28;20482;-78
2023/09/13 10:39:48;;;;;;;4.45;2.72;;;22.70;92.30;;;;;;5014836;28;20034;-78
2023/09/13 10:42:15;;;;;;;4.28;2.70;;;22.80;92.30;;;;;;5013655;28;20100;-77
2023/09/13 10:44:41;;;;;;;4.55;2.90;;;22.70;92.20;;;;;;5014642;28;20021;-77
2023/09/13 10:47:07;;;;;;;4.45;2.80;;;22.70;92.10;;;;;;5013316;28;20025;-76
2023/09/13 10:49:38;;;;;;;4.40;2.80;;;22.70;92.10;;;;;;5013433;28;20061;-77
2023/09/13 10:52:05;;;;;;;4.18;2.58;;;22.70;92.10;;;;;;5013368;28;20085;-77
2023/09/13 10:54:31;;;;;;;4.32;2.80;;;22.70;92.10;;;;;;5014454;28;20443;-78
2023/09/13 10:56:57;;;;;;;4.90;2.97;;;22.70;92.20;;;;;;5013451;28;20486;-78
2023/09/13 10:59:24;;;;;;;4.22;2.67;;;22.80;92.20;;;;;;5012886;28;20026;-78
2023/09/13 11:01:51;;;;;;;4.38;2.72;;;22.80;92.10;;;;;;5013082;28;20029;-78
2023/09/13 11:04:19;;;;;;;3.60;2.40;;;22.80;92.00;;;;;;5013037;28;20018;-78
2023/09/13 11:06:48;;;;;;;4.97;2.80;;;22.80;92.00;;;;;;5013071;28;20033;-77
2023/09/13 11:09:16;;;;;;;4.20;2.50;;;22.90;91.90;;;;;;5014023;28;20025;-77
2023/09/13 11:11:53;;;;;;;4.30;2.67;;;22.80;91.90;;;;;;5014474;28;20033;-77
2023/09/13 11:14:25;;;;;;;4.60;2.70;;;22.90;91.90;;;;;;5012807;28;20038;-77
2023/09/13 11:16:50;;;;;;;4.25;2.45;;;22.90;91.80;;;;;;5014073;28;20032;-77
2023/09/13 11:19:16;;;;;;;5.20;2.60;;;23.00;91.80;;;;;;5013522;28;20378;-77
2023/09/13 11:21:50;;;;;;;4.47;2.72;;;22.90;91.80;;;;;;5014118;28;20068;-77
2023/09/13 11:24:34;;;;;;;4.70;2.60;;;22.90;91.70;;;;;;5012728;28;20100;-77
2023/09/13 11:27:17;;;;;;;4.60;2.60;;;22.90;91.70;;;;;;5013886;28;20573;-77
2023/09/13 11:29:50;;;;;;;4.13;2.40;;;23.00;91.80;;;;;;5014045;28;20033;-77
2023/09/13 11:32:17;;;;;;;7.50;2.70;;;22.90;91.70;;;;;;5012846;28;20030;-77
2023/09/13 11:34:43;;;;;;;4.47;2.60;;;23.00;91.70;;;;;;5013857;28;20390;-77
2023/09/13 11:37:10;;;;;;;4.07;2.40;;;22.90;91.60;;;;;;5013347;28;20033;-77
2023/09/13 11:39:37;;;;;;;4.07;2.50;;;23.00;91.70;;;;;;5013881;28;20392;-77
2023/09/13 11:42:10;;;;;;;3.85;2.40;;;23.00;91.70;;;;;;5013694;28;20022;-77
2023/09/13 11:44:37;;;;;;;3.85;2.33;;;22.90;91.70;;;;;;5012349;28;20026;-77
2023/09/13 11:47:03;;;;;;;4.00;2.38;;;22.90;91.70;;;;;;5013561;28;20052;-77
2023/09/13 11:49:29;;;;;;;4.05;2.25;;;22.90;91.80;;;;;;5013547;28;20030;-77
2023/09/13 11:52:00;;;;;;;4.25;2.42;;;22.90;91.80;;;;;;5012262;28;20033;-77
2023/09/13 11:54:26;;;;;;;3.95;2.33;;;22.90;91.80;;;;;;5012294;28;20050;-77
2023/09/13 11:56:53;;;;;;;3.33;2.08;;;22.90;91.80;;;;;;5013237;28;20117;-78
2023/09/13 11:59:24;;;;;;;3.13;2.03;;;22.90;91.80;;;;;;5012989;28;20030;-77
2023/09/13 12:01:50;;;;;;;4.82;2.35;;;22.90;91.80;;;;;;5012222;28;20030;-77
2023/09/13 12:04:16;;;;;;;3.60;2.03;;;22.90;91.70;;;;;;5012030;28;20092;-77
2023/09/13 12:06:47;;;;;;;3.58;2.22;;;22.90;91.70;;;;;;5012000;28;20030;-77
2023/09/13 12:09:15;;;;;;;3.67;2.20;;;22.90;91.70;;;;;;5013355;28;20032;-77
2023/09/13 12:11:41;;;;;;;3.88;2.30;;;23.00;91.70;;;;;;5011963;28;20037;-77
2023/09/13 12:14:09;;;;;;;4.80;2.30;;;22.90;91.70;;;;;;5013060;28;20038;-77
2023/09/13 12:16:39;;;;;;;4.13;2.50;;;23.00;91.70;;;;;;5013012;28;20104;-77
2023/09/13 12:19:06;;;;;;;3.33;1.90;;;22.90;91.70;;;;;;5012926;28;20029;-77
2023/09/13 12:21:33;;;;;;;5.15;2.45;;;22.90;91.70;;;;;;5013017;28;20030;-77
2023/09/13 12:23:58;;;;;;;4.78;2.15;;;23.00;91.70;;;;;;5013126;28;20390;-77
2023/09/13 12:26:24;;;;;;;3.50;2.10;;;22.90;91.60;;;;;;5013034;28;20034;-77
2023/09/13 12:28:50;;;;;;;3.55;2.15;;;23.00;91.60;;;;;;5011524;28;20552;-77
2023/09/13 12:31:17;;;;;;;4.18;2.15;;;22.90;91.50;;;;;;5012227;28;20109;-77
2023/09/13 12:33:45;;;;;;;3.70;1.70;;;23.00;91.50;;;;;;5011513;28;20030;-77
2023/09/13 12:36:12;;;;;;;3.22;1.88;;;23.00;91.50;;;;;;5012737;28;20049;-77
2023/09/13 12:38:43;;;;;;;4.78;2.53;;;23.00;91.50;;;;;;5012460;28;20029;-77
2023/09/13 12:41:09;;;;;;;3.78;2.10;;;23.00;91.50;;;;;;5012745;28;20104;-77
2023/09/13 12:43:36;;;;;;;3.22;1.73;;;22.90;91.50;;;;;;5012754;28;20088;-77
2023/09/13 12:46:05;;;;;;;3.10;1.98;;;23.00;91.60;;;;;;5012757;28;20025;-77